createdAt,value
2022-12-17T00:01:49.594Z,10.20
2022-12-17T00:04:34.840Z,9.98
2022-12-17T00:07:20.571Z,10.18
2022-12-17T00:10:06.276Z,9.90
2022-12-17T00:12:52.099Z,10.65
2022-12-17T00:15:47.446Z,9.52
2022-12-17T00:18:33.199Z,10.25
2022-12-17T00:21:19.291Z,10.25
2022-12-17T00:24:04.814Z,10.35
2022-12-17T00:26:50.535Z,9.63
2022-12-17T00:29:36.043Z,9.77
2022-12-17T00:32:23.304Z,10.20
2022-12-17T00:35:09.175Z,9.77
2022-12-17T00:37:58.306Z,9.13
2022-12-17T00:40:43.679Z,10.07
2022-12-17T00:43:29.864Z,9.90
2022-12-17T00:46:15.315Z,9.98
2022-12-17T00:49:02.385Z,10.10
2022-12-17T00:51:48.104Z,10.07
2022-12-17T00:54:33.584Z,10.13
2022-12-17T00:57:18.850Z,10.15
2022-12-17T01:00:04.598Z,9.73
2022-12-17T01:02:49.268Z,9.88
2022-12-17T01:05:36.326Z,9.80
2022-12-17T01:08:28.392Z,9.60
2022-12-17T01:11:17.461Z,10.07
2022-12-17T01:14:08.312Z,9.95
2022-12-17T01:16:56.228Z,9.48
2022-12-17T01:19:42.029Z,9.77
2022-12-17T01:22:37.435Z,9.23
2022-12-17T01:25:23.486Z,9.90
2022-12-17T01:28:08.980Z,9.88
2022-12-17T01:30:55.223Z,9.68
2022-12-17T01:33:40.871Z,9.60
2022-12-17T01:36:26.154Z,9.32
2022-12-17T01:39:13.274Z,9.45
2022-12-17T01:41:58.464Z,9.63
2022-12-17T01:45:13.747Z,9.15
2022-12-17T01:48:01.476Z,9.90
2022-12-17T01:50:48.412Z,9.45
2022-12-17T01:53:34.635Z,9.43
2022-12-17T01:56:22.240Z,9.68
2022-12-17T01:59:07.504Z,8.93
2022-12-17T02:01:54.013Z,8.82
2022-12-17T02:04:40.795Z,9.73
2022-12-17T02:07:34.582Z,9.02
2022-12-17T02:10:25.172Z,9.20
2022-12-17T02:13:12.903Z,9.25
2022-12-17T02:16:01.984Z,9.00
2022-12-17T02:18:54.765Z,8.85
2022-12-17T02:21:40.558Z,9.20
2022-12-17T02:24:29.277Z,8.77
2022-12-17T02:27:17.583Z,9.25
2022-12-17T02:30:05.578Z,8.75
2022-12-17T02:32:53.026Z,8.95
2022-12-17T02:35:42.790Z,9.30
2022-12-17T02:38:47.599Z,8.57
2022-12-17T02:41:34.871Z,8.57
2022-12-17T02:44:21.947Z,9.38
2022-12-17T02:47:08.210Z,8.27
2022-12-17T02:49:54.011Z,8.43
2022-12-17T02:52:39.628Z,8.82
2022-12-17T02:55:25.418Z,8.27
2022-12-17T02:58:11.058Z,9.23
2022-12-17T03:00:58.034Z,8.95
2022-12-17T03:03:48.682Z,9.25
2022-12-17T03:06:35.506Z,8.50
2022-12-17T03:09:20.896Z,8.95
2022-12-17T03:12:06.401Z,8.65
2022-12-17T03:14:51.989Z,8.55
2022-12-17T03:17:38.797Z,8.43
2022-12-17T03:20:25.141Z,8.30
2022-12-17T03:23:10.754Z,8.90
2022-12-17T03:25:56.360Z,8.75
2022-12-17T03:28:41.931Z,8.23
2022-12-17T03:31:27.327Z,8.73
2022-12-17T03:34:13.935Z,8.57
2022-12-17T03:36:59.282Z,8.60
2022-12-17T03:39:44.838Z,8.73
2022-12-17T03:42:30.291Z,8.57
2022-12-17T03:45:15.704Z,8.15
2022-12-17T03:48:00.375Z,8.30
2022-12-17T03:50:47.246Z,8.52
2022-12-17T03:53:33.189Z,8.10
2022-12-17T03:56:18.841Z,7.93
2022-12-17T03:59:04.504Z,8.60
2022-12-17T04:01:51.657Z,7.82
2022-12-17T04:04:36.863Z,7.82
2022-12-17T04:07:23.833Z,8.43
2022-12-17T04:10:09.430Z,8.13
2022-12-17T04:12:55.019Z,8.10
2022-12-17T04:15:40.848Z,7.90
2022-12-17T04:18:26.154Z,8.45
2022-12-17T04:21:11.638Z,7.88
2022-12-17T04:23:58.515Z,8.23
2022-12-17T04:26:44.112Z,8.25
2022-12-17T04:29:29.802Z,7.97
2022-12-17T04:32:15.424Z,8.50
2022-12-17T04:35:00.779Z,7.63
2022-12-17T04:37:46.345Z,8.00
2022-12-17T04:40:33.223Z,7.72
2022-12-17T04:43:24.817Z,8.02
2022-12-17T04:46:10.483Z,8.23
2022-12-17T04:48:55.815Z,7.95
2022-12-17T04:51:41.429Z,7.82
2022-12-17T04:54:26.840Z,7.90
2022-12-17T04:57:13.728Z,7.85
2022-12-17T04:59:59.253Z,7.70
2022-12-17T05:02:44.910Z,7.72
2022-12-17T05:05:35.543Z,7.75
2022-12-17T05:08:21.088Z,7.90
2022-12-17T05:11:06.643Z,8.00
2022-12-17T05:13:53.449Z,7.95
2022-12-17T05:16:39.070Z,7.22
2022-12-17T05:19:24.348Z,7.82
2022-12-17T05:22:09.893Z,8.00
2022-12-17T05:24:55.541Z,7.03
2022-12-17T05:27:41.037Z,7.60
2022-12-17T05:30:28.860Z,7.25
2022-12-17T05:33:18.316Z,7.65
2022-12-17T05:36:03.542Z,7.40
2022-12-17T05:38:49.213Z,7.68
2022-12-17T05:41:34.738Z,7.50
2022-12-17T05:44:20.305Z,7.60
2022-12-17T05:47:06.918Z,7.93
2022-12-17T05:49:52.461Z,7.50
2022-12-17T05:52:38.037Z,7.43
2022-12-17T05:55:24.378Z,7.93
2022-12-17T05:58:09.894Z,7.57
2022-12-17T06:00:55.257Z,7.60
2022-12-17T06:03:42.640Z,7.47
2022-12-17T06:06:28.667Z,7.30
2022-12-17T06:09:14.360Z,7.20
2022-12-17T06:12:02.813Z,7.22
2022-12-17T06:14:48.386Z,7.72
2022-12-17T06:17:34.121Z,7.47
2022-12-17T06:20:20.855Z,7.68
2022-12-17T06:23:05.494Z,7.43
2022-12-17T06:25:51.193Z,7.40
2022-12-17T06:28:36.502Z,7.50
2022-12-17T06:31:22.196Z,7.28
2022-12-17T06:34:07.603Z,6.95
2022-12-17T06:36:54.593Z,7.20
2022-12-17T06:39:40.063Z,7.53
2022-12-17T06:42:25.411Z,7.30
2022-12-17T06:45:10.822Z,7.65
2022-12-17T06:47:55.527Z,7.60
2022-12-17T06:50:41.221Z,7.25
2022-12-17T06:53:28.595Z,7.75
2022-12-17T06:56:15.519Z,7.63
2022-12-17T06:59:00.982Z,7.22
2022-12-17T07:01:46.714Z,7.50
2022-12-17T07:04:32.184Z,7.50
2022-12-17T07:07:17.536Z,7.22
2022-12-17T07:10:06.910Z,7.25
2022-12-17T07:12:54.768Z,7.60
2022-12-17T07:15:40.491Z,7.18
2022-12-17T07:18:26.848Z,7.28
2022-12-17T07:21:12.350Z,8.10
2022-12-17T07:24:00.527Z,7.85
2022-12-17T07:26:47.665Z,7.38
2022-12-17T07:29:33.113Z,7.65
2022-12-17T07:32:18.709Z,7.00
2022-12-17T07:35:03.975Z,6.90
2022-12-17T07:37:49.614Z,7.05
2022-12-17T07:40:35.163Z,7.20
2022-12-17T07:43:37.717Z,7.40
2022-12-17T07:46:23.703Z,6.60
2022-12-17T07:49:09.351Z,7.00
2022-12-17T07:51:55.935Z,7.30
2022-12-17T07:54:41.525Z,7.00
2022-12-17T07:57:27.016Z,7.32
2022-12-17T08:00:13.695Z,6.93
2022-12-17T08:02:59.170Z,7.40
2022-12-17T08:05:44.491Z,7.28
2022-12-17T08:08:30.928Z,6.75
2022-12-17T08:11:16.374Z,7.05
2022-12-17T08:14:02.143Z,6.68
2022-12-17T08:16:48.975Z,6.70
2022-12-17T08:19:34.333Z,6.63
2022-12-17T08:22:16.143Z,6.80
2022-12-17T08:25:01.705Z,6.93
2022-12-17T08:27:47.250Z,6.63
2022-12-17T08:30:32.745Z,7.20
2022-12-17T08:33:22.494Z,6.45
2022-12-17T08:36:11.373Z,6.57
2022-12-17T08:38:57.089Z,6.85
2022-12-17T08:41:42.612Z,7.00
2022-12-17T08:44:27.962Z,7.20
2022-12-17T08:47:13.336Z,6.82
2022-12-17T08:50:00.461Z,6.63
2022-12-17T08:52:46.102Z,7.13
2022-12-17T08:55:31.482Z,6.72
2022-12-17T08:58:17.374Z,7.03
2022-12-17T09:01:03.193Z,6.60
2022-12-17T09:03:48.564Z,6.80
2022-12-17T09:06:39.139Z,7.45
2022-12-17T09:09:25.433Z,6.68
2022-12-17T09:12:10.663Z,6.53
2022-12-17T09:14:56.011Z,6.88
2022-12-17T09:17:41.602Z,6.95
2022-12-17T09:20:29.435Z,6.40
2022-12-17T09:23:16.733Z,6.72
2022-12-17T09:26:01.494Z,6.88
2022-12-17T09:28:46.182Z,7.32
2022-12-17T09:31:46.265Z,7.30
2022-12-17T09:34:32.002Z,6.53
2022-12-17T09:37:17.191Z,7.43
2022-12-17T09:40:03.948Z,14.95
2022-12-17T09:42:55.580Z,25.40
2022-12-17T09:45:46.576Z,17.73
2022-12-17T09:48:34.963Z,17.98
2022-12-17T09:51:20.659Z,16.85
2022-12-17T09:54:07.777Z,16.58
2022-12-17T09:56:54.711Z,16.15
2022-12-17T09:59:44.849Z,16.17
2022-12-17T10:02:33.818Z,15.35
2022-12-17T10:05:19.548Z,14.02
2022-12-17T10:08:05.072Z,13.63
2022-12-17T10:10:51.133Z,13.75
2022-12-17T10:13:39.124Z,14.05
2022-12-17T10:16:39.499Z,13.52
2022-12-17T10:19:25.084Z,14.02
2022-12-17T10:22:10.555Z,12.73
2022-12-17T10:25:03.300Z,11.98
2022-12-17T10:27:48.721Z,12.25
2022-12-17T10:30:35.873Z,11.63
2022-12-17T10:33:23.913Z,12.07
2022-12-17T10:36:09.602Z,11.75
2022-12-17T10:38:55.081Z,12.23
2022-12-17T10:41:41.169Z,11.30
2022-12-17T10:44:40.783Z,11.60
2022-12-17T10:47:30.785Z,10.68
2022-12-17T10:50:17.109Z,10.82
2022-12-17T10:53:03.082Z,10.70
2022-12-17T10:55:49.121Z,10.65
2022-12-17T10:58:38.885Z,10.88
2022-12-17T11:01:25.261Z,10.57
2022-12-17T11:04:12.570Z,14.93
2022-12-17T11:06:59.408Z,15.27
2022-12-17T11:09:56.785Z,13.98
2022-12-17T11:12:44.810Z,12.90
2022-12-17T11:15:35.886Z,13.30
2022-12-17T11:18:21.242Z,12.60
2022-12-17T11:21:11.832Z,12.57
2022-12-17T11:23:57.396Z,12.30
2022-12-17T11:26:42.990Z,12.02
2022-12-17T11:29:29.607Z,11.45
2022-12-17T11:32:26.456Z,11.40
2022-12-17T11:35:18.214Z,12.07
2022-12-17T11:38:08.154Z,11.65
2022-12-17T11:40:55.959Z,12.25
2022-12-17T11:43:44.156Z,11.13
2022-12-17T11:46:36.133Z,11.38
2022-12-17T11:49:25.958Z,10.63
2022-12-17T11:52:14.171Z,10.85
2022-12-17T11:55:02.565Z,10.68
2022-12-17T11:57:51.039Z,10.80
2022-12-17T12:00:39.745Z,10.70
2022-12-17T12:03:35.614Z,10.55
2022-12-17T12:06:22.203Z,9.80
2022-12-17T12:09:17.651Z,9.73
2022-12-17T12:12:07.427Z,10.38
2022-12-17T12:14:55.405Z,10.40
2022-12-17T12:17:47.694Z,9.65
2022-12-17T12:20:41.611Z,9.07
2022-12-17T12:23:31.659Z,9.57
2022-12-17T12:26:20.206Z,9.70
2022-12-17T12:29:09.584Z,9.40
2022-12-17T12:31:56.420Z,9.35
2022-12-17T12:34:43.773Z,9.43
2022-12-17T12:37:31.662Z,9.55
2022-12-17T12:40:19.780Z,9.13
2022-12-17T12:43:07.837Z,9.25
2022-12-17T12:45:59.427Z,9.65
2022-12-17T12:48:51.208Z,8.90
2022-12-17T12:51:39.138Z,8.88
2022-12-17T12:54:41.713Z,8.60
2022-12-17T12:57:43.470Z,9.25
2022-12-17T13:00:48.199Z,8.63
2022-12-17T13:03:53.432Z,8.77
2022-12-17T13:06:40.163Z,8.82
2022-12-17T13:09:22.739Z,8.27
2022-12-17T13:11:51.293Z,8.95
2022-12-17T13:14:20.389Z,9.27
2022-12-17T13:16:53.359Z,8.80
2022-12-17T13:19:34.481Z,8.70
2022-12-17T13:22:13.249Z,9.35
2022-12-17T13:24:41.175Z,10.18
2022-12-17T13:27:30.470Z,10.07
2022-12-17T13:29:58.386Z,10.48
2022-12-17T13:32:29.121Z,10.88
2022-12-17T13:35:10.293Z,10.23
2022-12-17T13:37:41.367Z,10.52
2022-12-17T13:40:19.197Z,11.35
2022-12-17T13:42:47.202Z,10.75
2022-12-17T13:45:16.229Z,10.65
2022-12-17T13:47:44.142Z,11.00
2022-12-17T13:50:33.999Z,10.65
2022-12-17T13:53:10.094Z,10.50
2022-12-17T13:55:39.313Z,9.80
2022-12-17T13:58:07.258Z,11.00
2022-12-17T14:00:35.183Z,10.18
2022-12-17T14:03:10.965Z,10.60
2022-12-17T14:05:42.421Z,10.15
2022-12-17T14:08:10.368Z,10.20
2022-12-17T14:10:38.184Z,9.77
2022-12-17T14:13:06.709Z,10.65
2022-12-17T14:15:35.026Z,9.38
2022-12-17T14:18:02.882Z,9.35
2022-12-17T14:20:31.412Z,9.75
2022-12-17T14:23:02.747Z,9.35
2022-12-17T14:25:31.504Z,9.65
2022-12-17T14:28:01.702Z,9.27
2022-12-17T14:30:34.721Z,9.90
2022-12-17T14:33:02.662Z,9.10
2022-12-17T14:35:31.431Z,9.50
2022-12-17T14:37:59.312Z,9.93
2022-12-17T14:40:28.597Z,9.30
2022-12-17T14:42:59.532Z,9.63
2022-12-17T14:45:28.025Z,9.13
2022-12-17T14:47:56.595Z,9.00
2022-12-17T14:50:30.139Z,9.27
2022-12-17T14:52:58.738Z,8.48
2022-12-17T14:55:33.493Z,8.52
2022-12-17T14:58:21.190Z,9.30
2022-12-17T15:00:51.281Z,8.73
2022-12-17T15:03:24.009Z,9.25
2022-12-17T15:05:54.340Z,8.38
2022-12-17T15:08:22.359Z,8.85
2022-12-17T15:10:51.600Z,8.48
2022-12-17T15:13:19.679Z,8.60
2022-12-17T15:15:47.715Z,8.52
2022-12-17T15:18:15.616Z,8.80
2022-12-17T15:20:43.527Z,8.77
2022-12-17T15:23:15.147Z,8.20
2022-12-17T15:25:46.659Z,8.82
2022-12-17T15:28:16.402Z,8.55
2022-12-17T15:30:44.439Z,8.57
2022-12-17T15:33:13.109Z,8.70
2022-12-17T15:35:40.999Z,9.00
2022-12-17T15:38:09.121Z,8.65
2022-12-17T15:40:37.322Z,9.18
2022-12-17T15:43:13.659Z,8.80
2022-12-17T15:45:43.971Z,8.65
2022-12-17T15:48:12.331Z,8.75
2022-12-17T15:50:40.387Z,8.70
2022-12-17T15:53:09.243Z,8.30
2022-12-17T15:56:16.591Z,7.97
2022-12-17T15:58:46.090Z,8.60
2022-12-17T16:01:15.392Z,8.90
2022-12-17T16:03:43.463Z,8.48
2022-12-17T16:06:11.406Z,8.85
2022-12-17T16:08:40.020Z,8.18
2022-12-17T16:11:09.259Z,8.18
2022-12-17T16:13:37.160Z,7.88
2022-12-17T16:16:05.505Z,8.05
2022-12-17T16:18:35.085Z,8.77
2022-12-17T16:21:04.235Z,8.27
2022-12-17T16:23:32.133Z,7.85
2022-12-17T16:26:00.333Z,8.65
2022-12-17T16:28:28.476Z,8.50
2022-12-17T16:31:01.266Z,8.23
2022-12-17T16:33:35.573Z,8.18
2022-12-17T16:36:06.213Z,8.77
2022-12-17T16:38:35.648Z,8.38
2022-12-17T16:41:04.231Z,9.07
2022-12-17T16:43:34.269Z,9.05
2022-12-17T16:46:02.703Z,8.80
2022-12-17T16:48:31.710Z,8.63
2022-12-17T16:50:59.830Z,8.63
2022-12-17T16:53:29.083Z,8.82
2022-12-17T16:55:56.964Z,8.60
2022-12-17T16:58:24.839Z,9.18
2022-12-17T17:00:54.976Z,8.30
2022-12-17T17:03:23.064Z,8.52
2022-12-17T17:05:51.119Z,8.15
2022-12-17T17:08:18.983Z,8.25
2022-12-17T17:10:48.152Z,8.35
2022-12-17T17:13:16.001Z,8.55
2022-12-17T17:15:44.173Z,8.63
2022-12-17T17:18:12.036Z,8.32
2022-12-17T17:20:39.861Z,8.60
2022-12-17T17:23:07.708Z,8.57
2022-12-17T17:25:57.592Z,8.55
2022-12-17T17:28:25.938Z,8.77
2022-12-17T17:30:59.772Z,8.25
2022-12-17T17:33:30.304Z,8.45
2022-12-17T17:36:04.355Z,8.40
2022-12-17T17:38:33.901Z,8.68
2022-12-17T17:41:01.810Z,8.95
2022-12-17T17:43:31.201Z,8.82
2022-12-17T17:46:05.368Z,8.30
2022-12-17T17:48:33.595Z,8.40
2022-12-17T17:51:01.915Z,9.00
2022-12-17T17:53:29.819Z,8.13
2022-12-17T17:56:03.390Z,8.50
2022-12-17T17:58:32.616Z,8.50
2022-12-17T18:01:00.567Z,8.55
2022-12-17T18:03:31.481Z,8.48
2022-12-17T18:06:02.139Z,8.05
2022-12-17T18:08:31.423Z,8.50
2022-12-17T18:10:59.664Z,8.80
2022-12-17T18:13:45.013Z,8.68
2022-12-17T18:16:14.731Z,8.80
2022-12-17T18:18:43.036Z,8.43
2022-12-17T18:21:12.792Z,8.85
2022-12-17T18:23:41.598Z,8.68
2022-12-17T18:26:10.982Z,8.68
2022-12-17T18:28:39.454Z,8.55
2022-12-17T18:31:09.177Z,8.63
2022-12-17T18:33:38.926Z,8.60
2022-12-17T18:36:12.169Z,8.48
2022-12-17T18:38:40.228Z,8.77
2022-12-17T18:41:30.236Z,8.38
2022-12-17T18:43:58.539Z,9.02
2022-12-17T18:46:26.517Z,7.93
2022-12-17T18:48:57.676Z,8.90
2022-12-17T18:51:25.559Z,8.75
2022-12-17T18:53:53.547Z,8.85
2022-12-17T18:56:44.856Z,8.15
2022-12-17T18:59:09.340Z,8.07
2022-12-17T19:01:37.850Z,8.30
2022-12-17T19:04:08.070Z,7.78
2022-12-17T19:06:36.998Z,8.00
2022-12-17T19:09:05.138Z,7.65
2022-12-17T19:11:33.070Z,7.95
2022-12-17T19:14:00.906Z,7.88
2022-12-17T19:16:29.563Z,7.88
2022-12-17T19:18:58.339Z,7.82
2022-12-17T19:21:27.554Z,8.52
2022-12-17T19:23:57.121Z,7.95
2022-12-17T19:26:25.424Z,8.00
2022-12-17T19:28:54.633Z,7.60
2022-12-17T19:31:23.612Z,7.93
2022-12-17T19:33:54.574Z,8.07
2022-12-17T19:36:27.890Z,8.18
2022-12-17T19:38:58.450Z,7.82
2022-12-17T19:41:27.352Z,7.60
2022-12-17T19:43:56.173Z,7.50
2022-12-17T19:46:24.287Z,7.45
2022-12-17T19:48:52.511Z,7.65
2022-12-17T19:51:22.720Z,7.75
2022-12-17T19:53:50.706Z,7.80
2022-12-17T19:56:21.190Z,7.45
2022-12-17T19:58:50.746Z,7.60
2022-12-17T20:01:20.094Z,7.95
2022-12-17T20:03:48.032Z,8.00
2022-12-17T20:06:16.750Z,8.10
2022-12-17T20:08:45.200Z,7.63
2022-12-17T20:11:28.076Z,7.93
2022-12-17T20:13:57.766Z,7.72
2022-12-17T20:16:25.708Z,7.63
2022-12-17T20:18:53.626Z,7.65
2022-12-17T20:21:23.693Z,7.65
2022-12-17T20:23:51.652Z,7.55
2022-12-17T20:26:19.592Z,7.78
2022-12-17T20:28:47.461Z,7.70
2022-12-17T20:31:16.824Z,7.75
2022-12-17T20:33:44.866Z,7.20
2022-12-17T20:36:13.970Z,7.70
2022-12-17T20:38:42.355Z,7.15
2022-12-17T20:41:11.269Z,7.53
2022-12-17T20:43:39.217Z,7.10
2022-12-17T20:46:07.419Z,6.93
2022-12-17T20:48:37.316Z,7.30
2022-12-17T20:51:07.167Z,7.53
2022-12-17T20:53:35.636Z,7.40
2022-12-17T20:56:03.899Z,7.03
2022-12-17T20:58:31.818Z,7.30
2022-12-17T21:01:03.904Z,7.20
2022-12-17T21:03:32.422Z,7.55
2022-12-17T21:06:09.795Z,7.45
2022-12-17T21:08:38.173Z,7.60
2022-12-17T21:11:06.641Z,7.40
2022-12-17T21:13:34.711Z,7.25
2022-12-17T21:16:04.177Z,7.25
2022-12-17T21:18:32.302Z,7.32
2022-12-17T21:21:00.963Z,7.10
2022-12-17T21:23:31.440Z,7.60
2022-12-17T21:26:00.804Z,7.20
2022-12-17T21:28:29.551Z,7.40
2022-12-17T21:30:57.619Z,7.40
2022-12-17T21:33:25.622Z,7.35
2022-12-17T21:35:59.341Z,6.80
2022-12-17T21:38:27.464Z,7.63
2022-12-17T21:40:56.881Z,7.32
2022-12-17T21:43:24.925Z,7.40
2022-12-17T21:45:57.435Z,7.32
2022-12-17T21:48:25.433Z,7.55
2022-12-17T21:50:53.314Z,7.18
2022-12-17T21:53:21.682Z,7.28
2022-12-17T21:55:49.805Z,8.27
2022-12-17T21:58:19.301Z,7.00
2022-12-17T22:00:47.189Z,7.30
2022-12-17T22:03:15.649Z,7.15
2022-12-17T22:05:43.519Z,7.30
2022-12-17T22:08:12.682Z,6.97
2022-12-17T22:10:52.422Z,7.20
2022-12-17T22:13:39.428Z,7.35
2022-12-17T22:16:07.923Z,7.05
2022-12-17T22:18:36.036Z,7.28
2022-12-17T22:21:04.084Z,7.30
2022-12-17T22:23:32.143Z,7.18
2022-12-17T22:26:00.449Z,6.85
2022-12-17T22:28:29.679Z,7.07
2022-12-17T22:31:15.196Z,7.28
2022-12-17T22:33:45.673Z,7.25
2022-12-17T22:38:07.604Z,7.05
2022-12-17T22:40:59.392Z,7.43
2022-12-17T22:44:27.346Z,6.80
2022-12-17T22:45:13.302Z,7.35
2022-12-17T22:47:41.709Z,7.47
2022-12-17T22:50:10.359Z,7.63
2022-12-17T22:52:38.903Z,7.60
2022-12-17T22:55:07.961Z,7.50
2022-12-17T22:57:38.391Z,7.22
2022-12-17T23:00:10.173Z,7.38
2022-12-17T23:02:39.515Z,7.85
2022-12-17T23:05:07.882Z,7.40
2022-12-17T23:07:35.988Z,7.90
2022-12-17T23:10:03.960Z,7.60
2022-12-17T23:12:49.391Z,7.20
2022-12-17T23:15:19.371Z,7.57
2022-12-17T23:17:48.620Z,7.60
2022-12-17T23:20:16.624Z,7.55
2022-12-17T23:22:44.456Z,7.60
2022-12-17T23:25:12.301Z,7.53
2022-12-17T23:27:40.191Z,7.57
2022-12-17T23:30:10.598Z,7.40
2022-12-17T23:32:38.593Z,8.02
2022-12-17T23:35:08.823Z,7.60
2022-12-17T23:37:40.045Z,7.72
2022-12-17T23:40:12.333Z,7.28
2022-12-17T23:42:40.336Z,7.40
2022-12-17T23:45:11.101Z,6.68
2022-12-17T23:47:39.554Z,7.65
2022-12-17T23:50:09.832Z,7.72
2022-12-17T23:52:38.308Z,7.45
2022-12-17T23:55:06.562Z,7.72
2022-12-17T23:57:34.406Z,7.45
